Dream Diva — 3EKW6 — position and weather

sailwx.info

Track history (hours):
 
Tides and Currents Weather Stations Pressure Air Temp Water Temp Dewpoint Dewpoint Depression Visibility Wind Speed Wind Dir Waves Ship Positions

Dream Diva

Last reported at 2015-Feb-19 17:30 UTC. Time now 2015-Mar-01 20:59 UTC.
Position S 36°13' E 174°56'.
Warning: this ship's position is 10 days out of date.

Length 186 m; draft 7.2 m.

Type: Cargo ship. MMSI: 372856000.

Date/timePositionNaut miles runAvg speedWind from/ knotsBaromVisibWave heightAir tempDewpointWater temp
2015-Feb-19 17:30S 36°13' E 174°56'1010.4
2015-Feb-19 16:33S 36°23' E 174°58'10 9.8
2015-Feb-19 15:33S 36°33' E 174°59'9 9.5
2015-Feb-19 14:33S 36°41' E 174°53'9 9.2
2015-Feb-19 13:34S 36°50' E 174°50'3 2.7
2015-Feb-19 12:32S 36°50' E 174°46'0 0.0
2015-Feb-19 11:32S 36°50' E 174°46'0 0.0
2015-Feb-19 10:32S 36°50' E 174°46'0 0.0
2015-Feb-19 09:32S 36°50' E 174°46'0 0.0
2015-Feb-19 08:32S 36°50' E 174°46'0 0.0
2015-Feb-19 07:32S 36°50' E 174°46'0 0.0
2015-Feb-19 06:32S 36°50' E 174°46'0 0.0
2015-Feb-19 05:32S 36°50' E 174°46'0 0.0
2015-Feb-19 04:32S 36°50' E 174°46'0 0.0
2015-Feb-19 03:32S 36°50' E 174°46'0 0.0
2015-Feb-19 02:32S 36°50' E 174°46'0 0.0
2015-Feb-19 01:32S 36°50' E 174°46'0 0.0
2015-Feb-19 00:32S 36°50' E 174°46'0 0.0
2015-Feb-18 23:32S 36°50' E 174°46'0 0.1
2015-Feb-18 22:33S 36°50' E 174°46'6 5.6
2015-Feb-18 21:34S 36°45' E 174°49'6 5.5
2015-Feb-18 20:33S 36°41' E 174°53'10 9.5
2015-Feb-18 19:33S 36°32' E 174°59'1211.7
2015-Feb-18 18:33S 36°21' E 174°58'1413.7
2015-Feb-18 17:30S 36°06' E 174°56'  
2015-Feb-15 12:33S 26°52' E 153°46'1717.3
2015-Feb-15 11:34S 26°47' E 153°27'1515.2
2015-Feb-15 10:33S 26°42' E 153°11'1313.2
2015-Feb-15 09:33S 26°55' E 153°12'1616.4
2015-Feb-15 08:33S 27°10' E 153°21'1414.1
2015-Feb-15 07:34S 27°21' E 153°11'2 2.3
2015-Feb-15 06:34S 27°23' E 153°10'0 0.0
2015-Feb-15 05:28S 27°23' E 153°10'0 0.0
2015-Feb-15 04:33S 27°23' E 153°10'0 0.0
2015-Feb-15 03:33S 27°23' E 153°10'0 0.0
2015-Feb-15 02:34S 27°23' E 153°10'0 0.0
2015-Feb-15 01:32S 27°23' E 153°10'0 0.0
2015-Feb-15 00:33S 27°23' E 153°10'0 0.0
2015-Feb-14 23:33S 27°23' E 153°10'0 0.0
2015-Feb-14 22:34S 27°23' E 153°10'0 0.0
2015-Feb-14 21:33S 27°23' E 153°10'1 0.8
2015-Feb-14 20:33S 27°22' E 153°10'1413.7
2015-Feb-14 19:34S 27°12' E 153°21'1616.1
2015-Feb-14 18:34S 26°57' E 153°13'1313.2
2015-Feb-14 17:33S 26°44' E 153°11'7 6.9
2015-Feb-14 16:32S 26°41' E 153°18'6 1.3
2015-Feb-14 12:11S 26°41' E 153°25'1 1.4
2015-Feb-14 11:32S 26°40' E 153°26'4 1.7
2015-Feb-14 09:23S 26°39' E 153°29'6 1.8
2015-Feb-14 06:03S 26°42' E 153°24'1 0.7
2015-Feb-14 04:13S 26°43' E 153°25'4 1.2
2015-Feb-14 00:33S 26°40' E 153°29'5 4.8
2015-Feb-13 23:27S 26°39' E 153°23'3 0.9
2015-Feb-13 20:33S 26°38' E 153°26'4 1.5
2015-Feb-13 17:33S 26°34' E 153°26'  
Track history (hours):
 
Tides and Currents Weather Stations Pressure Air Temp Water Temp Dewpoint Dewpoint Depression Visibility Wind Speed Wind Dir Waves Ship Positions

Dream Diva

Last reported at 2015-Feb-19 17:30 UTC. Time now 2015-Mar-01 20:59 UTC.
Position S 36°13' E 174°56'.
Warning: this ship's position is 10 days out of date.

Length 186 m; draft 7.2 m.

Type: Cargo ship. MMSI: 372856000.

Date/timePositionNaut miles runAvg speedWind from/ knotsBaromVisibWave heightAir tempDewpointWater temp
2015-Feb-19 17:30S 36°13' E 174°56'1010.4
2015-Feb-19 16:33S 36°23' E 174°58'10 9.8
2015-Feb-19 15:33S 36°33' E 174°59'9 9.5
2015-Feb-19 14:33S 36°41' E 174°53'9 9.2
2015-Feb-19 13:34S 36°50' E 174°50'3 2.7
2015-Feb-19 12:32S 36°50' E 174°46'0 0.0
2015-Feb-19 11:32S 36°50' E 174°46'0 0.0
2015-Feb-19 10:32S 36°50' E 174°46'0 0.0
2015-Feb-19 09:32S 36°50' E 174°46'0 0.0
2015-Feb-19 08:32S 36°50' E 174°46'0 0.0
2015-Feb-19 07:32S 36°50' E 174°46'0 0.0
2015-Feb-19 06:32S 36°50' E 174°46'0 0.0
2015-Feb-19 05:32S 36°50' E 174°46'0 0.0
2015-Feb-19 04:32S 36°50' E 174°46'0 0.0
2015-Feb-19 03:32S 36°50' E 174°46'0 0.0
2015-Feb-19 02:32S 36°50' E 174°46'0 0.0
2015-Feb-19 01:32S 36°50' E 174°46'0 0.0
2015-Feb-19 00:32S 36°50' E 174°46'0 0.0
2015-Feb-18 23:32S 36°50' E 174°46'0 0.1
2015-Feb-18 22:33S 36°50' E 174°46'6 5.6
2015-Feb-18 21:34S 36°45' E 174°49'6 5.5
2015-Feb-18 20:33S 36°41' E 174°53'10 9.5
2015-Feb-18 19:33S 36°32' E 174°59'1211.7
2015-Feb-18 18:33S 36°21' E 174°58'1413.7
2015-Feb-18 17:30S 36°06' E 174°56'  
2015-Feb-15 12:33S 26°52' E 153°46'1717.3
2015-Feb-15 11:34S 26°47' E 153°27'1515.2
2015-Feb-15 10:33S 26°42' E 153°11'1313.2
2015-Feb-15 09:33S 26°55' E 153°12'1616.4
2015-Feb-15 08:33S 27°10' E 153°21'1414.1
2015-Feb-15 07:34S 27°21' E 153°11'2 2.3
2015-Feb-15 06:34S 27°23' E 153°10'0 0.0
2015-Feb-15 05:28S 27°23' E 153°10'0 0.0
2015-Feb-15 04:33S 27°23' E 153°10'0 0.0
2015-Feb-15 03:33S 27°23' E 153°10'0 0.0
2015-Feb-15 02:34S 27°23' E 153°10'0 0.0
2015-Feb-15 01:32S 27°23' E 153°10'0 0.0
2015-Feb-15 00:33S 27°23' E 153°10'0 0.0
2015-Feb-14 23:33S 27°23' E 153°10'0 0.0
2015-Feb-14 22:34S 27°23' E 153°10'0 0.0
2015-Feb-14 21:33S 27°23' E 153°10'1 0.8
2015-Feb-14 20:33S 27°22' E 153°10'1413.7
2015-Feb-14 19:34S 27°12' E 153°21'1616.1
2015-Feb-14 18:34S 26°57' E 153°13'1313.2
2015-Feb-14 17:33S 26°44' E 153°11'7 6.9
2015-Feb-14 16:32S 26°41' E 153°18'6 1.3
2015-Feb-14 12:11S 26°41' E 153°25'1 1.4
2015-Feb-14 11:32S 26°40' E 153°26'4 1.7
2015-Feb-14 09:23S 26°39' E 153°29'6 1.8
2015-Feb-14 06:03S 26°42' E 153°24'1 0.7
2015-Feb-14 04:13S 26°43' E 153°25'4 1.2
2015-Feb-14 00:33S 26°40' E 153°29'5 4.8
2015-Feb-13 23:27S 26°39' E 153°23'3 0.9
2015-Feb-13 20:33S 26°38' E 153°26'4 1.5
2015-Feb-13 17:33S 26°34' E 153°26'  

Dump ship's entire track history